Time;durP1;ratioP1;P1;durP2;ratioP2;P2;SDS_P1;SDS_P2;PMS_P1;PMS_P2;Temp;Humidity;BMP_temperature;BMP_pressure;BME280_temperature;BME280_humidity;BME280_pressure;Samples;Min_cycle;Max_cycle;Signal;HPM_P1;HPM_P2
2021/01/09 00:01:08;;;;;;;35.70;17.75;;;;;;;;;;5095735;28;20536;-64
2021/01/09 00:03:38;;;;;;;34.35;18.52;;;;;;;;;;5095340;28;20191;-64
2021/01/09 00:06:04;;;;;;;26.02;16.77;;;;;;;;;;5095048;28;20195;-64
2021/01/09 00:08:32;;;;;;;27.30;17.95;;;;;;;;;;5094899;28;20245;-64
2021/01/09 00:10:59;;;;;;;29.85;18.23;;;;;;;;;;5095160;28;20199;-64
2021/01/09 00:13:26;;;;;;;29.25;16.83;;;;;;;;;;5095375;28;20203;-65
2021/01/09 00:15:53;;;;;;;27.40;16.05;;;;;;;;;;5094988;28;20669;-65
2021/01/09 00:18:20;;;;;;;28.10;17.30;;;;;;;;;;5095134;28;20704;-64
2021/01/09 00:20:46;;;;;;;29.27;18.00;;;;;;;;;;5094945;28;20214;-63
2021/01/09 00:23:13;;;;;;;32.40;18.27;;;;;;;;;;5094688;28;20187;-65
2021/01/09 00:25:40;;;;;;;31.17;17.25;;;;;;;;;;5094781;28;20240;-63
2021/01/09 00:28:07;;;;;;;37.80;17.92;;;;;;;;;;5094961;28;20219;-65
2021/01/09 00:30:35;;;;;;;32.05;19.73;;;;;;;;;;5093789;28;20608;-64
2021/01/09 00:33:02;;;;;;;34.28;18.83;;;;;;;;;;5094497;28;20200;-65
2021/01/09 00:35:29;;;;;;;31.00;17.42;;;;;;;;;;5094955;28;20203;-64
2021/01/09 00:37:57;;;;;;;31.98;18.10;;;;;;;;;;5094825;28;20203;-64
2021/01/09 00:40:25;;;;;;;32.05;17.92;;;;;;;;;;5094384;28;20252;-64
2021/01/09 00:42:52;;;;;;;30.08;18.20;;;;;;;;;;5094292;28;20203;-63
2021/01/09 00:45:23;;;;;;;27.70;17.48;;;;;;;;;;5094505;28;20175;-64
2021/01/09 00:47:49;;;;;;;29.48;18.17;;;;;;;;;;5094294;28;20238;-64
2021/01/09 00:50:16;;;;;;;29.73;17.65;;;;;;;;;;5094563;28;20199;-64
2021/01/09 00:52:42;;;;;;;26.88;16.17;;;;;;;;;;5094345;28;20261;-65
2021/01/09 00:55:10;;;;;;;29.98;16.73;;;;;;;;;;5094326;28;20195;-64
2021/01/09 00:57:37;;;;;;;31.05;17.60;;;;;;;;;;5094180;28;20202;-64
2021/01/09 01:00:04;;;;;;;33.60;18.85;;;;;;;;;;5094011;28;20194;-64
2021/01/09 01:02:34;;;;;;;38.25;17.77;;;;;;;;;;5093916;28;20172;-64
2021/01/09 01:05:07;;;;;;;29.67;16.70;;;;;;;;;;5094193;28;20179;-63
2021/01/09 01:07:37;;;;;;;29.25;18.38;;;;;;;;;;5093552;28;20272;-64
2021/01/09 01:10:04;;;;;;;34.10;17.63;;;;;;;;;;5093751;28;20195;-64
2021/01/09 01:12:32;;;;;;;27.75;17.05;;;;;;;;;;5093522;28;20229;-64
2021/01/09 01:15:01;;;;;;;32.03;17.88;;;;;;;;;;5093605;28;20200;-63
2021/01/09 01:17:27;;;;;;;33.92;18.90;;;;;;;;;;5093440;28;20206;-64
2021/01/09 01:19:54;;;;;;;34.28;18.75;;;;;;;;;;5093505;28;20244;-64
2021/01/09 01:22:21;;;;;;;34.42;19.45;;;;;;;;;;5093689;28;20195;-63
2021/01/09 01:24:47;;;;;;;36.90;18.45;;;;;;;;;;5093640;28;20207;-63
2021/01/09 01:27:16;;;;;;;28.92;16.10;;;;;;;;;;5093753;28;20200;-64
2021/01/09 01:29:43;;;;;;;30.75;18.02;;;;;;;;;;5093506;28;20187;-64
2021/01/09 01:32:09;;;;;;;27.40;18.35;;;;;;;;;;5096798;28;20187;-64
2021/01/09 01:34:36;;;;;;;29.20;19.52;;;;;;;;;;5097887;28;20191;-64
2021/01/09 01:37:03;;;;;;;27.63;16.92;;;;;;;;;;5097676;28;20219;-64
2021/01/09 01:39:42;;;;;;;26.98;17.27;;;;;;;;;;5097983;28;20182;-64
2021/01/09 01:42:10;;;;;;;28.38;17.77;;;;;;;;;;5097754;28;20195;-64
2021/01/09 01:44:38;;;;;;;31.30;18.92;;;;;;;;;;5098029;28;20190;-64
2021/01/09 01:47:05;;;;;;;28.52;16.90;;;;;;;;;;5097302;28;20233;-64
2021/01/09 01:49:34;;;;;;;31.80;18.45;;;;;;;;;;5097130;28;20815;-64
2021/01/09 01:52:03;;;;;;;32.03;18.67;;;;;;;;;;5097222;28;20659;-64
2021/01/09 01:54:30;;;;;;;31.85;19.13;;;;;;;;;;5097253;28;20237;-64
2021/01/09 01:56:57;;;;;;;29.95;17.77;;;;;;;;;;5097140;28;20553;-63
2021/01/09 01:59:24;;;;;;;32.58;17.85;;;;;;;;;;5096023;28;20552;-64
2021/01/09 02:01:50;;;;;;;30.52;17.98;;;;;;;;;;5097377;28;20215;-64
2021/01/09 02:04:17;;;;;;;30.73;18.20;;;;;;;;;;5096838;28;20207;-64
2021/01/09 02:06:46;;;;;;;29.50;17.70;;;;;;;;;;5097055;28;20237;-64
2021/01/09 02:09:18;;;;;;;29.52;18.25;;;;;;;;;;5096798;28;20231;-64
2021/01/09 02:11:48;;;;;;;32.90;19.08;;;;;;;;;;5096604;28;20207;-63
2021/01/09 02:14:18;;;;;;;34.20;19.10;;;;;;;;;;5096830;28;20260;-63
2021/01/09 02:16:48;;;;;;;31.77;18.23;;;;;;;;;;5097427;28;20183;-64
2021/01/09 02:19:15;;;;;;;30.55;18.00;;;;;;;;;;5096439;28;20651;-63
2021/01/09 02:21:42;;;;;;;29.45;18.27;;;;;;;;;;5096508;28;20200;-63
2021/01/09 02:24:16;;;;;;;26.00;16.73;;;;;;;;;;5096603;28;20211;-63
2021/01/09 02:26:42;;;;;;;27.45;16.23;;;;;;;;;;5096749;28;20233;-64
2021/01/09 02:29:11;;;;;;;27.40;17.65;;;;;;;;;;5096506;28;20234;-63
2021/01/09 02:31:43;;;;;;;27.58;17.83;;;;;;;;;;5095323;28;20646;-63
2021/01/09 02:34:10;;;;;;;27.17;16.33;;;;;;;;;;5096723;28;20185;-63
2021/01/09 02:36:38;;;;;;;28.83;17.27;;;;;;;;;;5096828;28;20195;-64
2021/01/09 02:39:05;;;;;;;30.42;18.13;;;;;;;;;;5096346;28;20561;-63
2021/01/09 02:41:34;;;;;;;28.45;17.02;;;;;;;;;;5096273;28;20655;-64
2021/01/09 02:44:09;;;;;;;30.08;18.70;;;;;;;;;;5096425;28;20188;-63
2021/01/09 02:46:37;;;;;;;30.15;17.55;;;;;;;;;;5095880;28;20222;-64
2021/01/09 02:49:05;;;;;;;36.03;18.95;;;;;;;;;;5094797;28;20232;-64
2021/01/09 02:51:32;;;;;;;26.98;18.00;;;;;;;;;;5096108;28;20194;-64
2021/01/09 02:54:00;;;;;;;29.30;17.88;;;;;;;;;;5096072;28;20234;-64
2021/01/09 02:56:27;;;;;;;30.10;17.65;;;;;;;;;;5095457;28;20199;-63
2021/01/09 02:58:53;;;;;;;30.58;17.73;;;;;;;;;;5095937;28;20222;-64
2021/01/09 03:01:26;;;;;;;26.77;17.88;;;;;;;;;;5096060;28;20253;-64
2021/01/09 03:03:53;;;;;;;30.65;18.73;;;;;;;;;;5096015;28;20603;-64
2021/01/09 03:06:20;;;;;;;26.25;17.00;;;;;;;;;;5096170;28;20567;-63
2021/01/09 03:08:46;;;;;;;36.47;20.30;;;;;;;;;;5095443;28;20238;-64
2021/01/09 03:11:13;;;;;;;28.58;17.80;;;;;;;;;;5096579;28;20207;-64
2021/01/09 03:13:39;;;;;;;30.05;18.17;;;;;;;;;;5095745;28;20195;-64
2021/01/09 03:16:07;;;;;;;33.38;18.35;;;;;;;;;;5095678;28;20595;-63
2021/01/09 03:18:34;;;;;;;29.23;18.50;;;;;;;;;;5095663;28;20641;-63
2021/01/09 03:21:03;;;;;;;31.92;19.75;;;;;;;;;;5095651;28;20199;-63
2021/01/09 03:23:30;;;;;;;28.45;17.67;;;;;;;;;;5095521;28;20210;-64
2021/01/09 03:25:57;;;;;;;30.45;18.13;;;;;;;;;;5095820;28;20253;-63
2021/01/09 03:28:23;;;;;;;29.90;18.88;;;;;;;;;;5095359;28;20242;-63
2021/01/09 03:30:52;;;;;;;27.92;18.98;;;;;;;;;;5095698;28;20199;-63
2021/01/09 03:33:20;;;;;;;34.63;19.35;;;;;;;;;;5095440;28;20191;-63
2021/01/09 03:35:47;;;;;;;25.83;17.67;;;;;;;;;;5095596;28;20195;-63
2021/01/09 03:38:13;;;;;;;32.67;18.77;;;;;;;;;;5095241;28;20222;-63
2021/01/09 03:40:40;;;;;;;32.50;17.70;;;;;;;;;;5095243;28;20191;-63
2021/01/09 03:43:07;;;;;;;30.45;17.15;;;;;;;;;;5095279;28;20226;-63
2021/01/09 03:45:33;;;;;;;30.05;17.40;;;;;;;;;;5093669;28;20642;-63
2021/01/09 03:48:00;;;;;;;28.92;17.13;;;;;;;;;;5094928;28;20230;-63
2021/01/09 03:50:27;;;;;;;26.13;16.60;;;;;;;;;;5095238;28;20195;-63
2021/01/09 03:52:53;;;;;;;27.30;16.73;;;;;;;;;;5093449;28;20206;-64
2021/01/09 03:55:20;;;;;;;33.90;19.17;;;;;;;;;;5094305;28;20543;-64
2021/01/09 03:57:46;;;;;;;32.15;17.75;;;;;;;;;;5095206;28;20203;-63
2021/01/09 04:00:15;;;;;;;30.50;17.52;;;;;;;;;;5094833;28;20214;-63
2021/01/09 04:02:41;;;;;;;30.65;17.13;;;;;;;;;;5095186;28;20282;-63
2021/01/09 04:05:11;;;;;;;35.20;19.73;;;;;;;;;;5095327;28;20206;-63
2021/01/09 04:07:37;;;;;;;30.15;17.70;;;;;;;;;;5093108;28;20210;-64
2021/01/09 04:10:04;;;;;;;37.72;20.15;;;;;;;;;;5095087;28;20223;-63
2021/01/09 04:12:31;;;;;;;34.10;18.52;;;;;;;;;;5095085;28;20278;-63
2021/01/09 04:14:58;;;;;;;31.40;18.30;;;;;;;;;;5094294;28;20221;-63
2021/01/09 04:17:26;;;;;;;31.27;17.75;;;;;;;;;;5094538;28;20241;-63
2021/01/09 04:19:56;;;;;;;30.15;17.10;;;;;;;;;;5094676;28;20183;-63
2021/01/09 04:22:23;;;;;;;34.67;19.63;;;;;;;;;;5094845;28;20203;-63
2021/01/09 04:24:50;;;;;;;36.25;18.95;;;;;;;;;;5094817;28;20191;-63
2021/01/09 04:27:17;;;;;;;28.38;17.35;;;;;;;;;;5094420;28;20740;-63
2021/01/09 04:29:44;;;;;;;33.00;18.95;;;;;;;;;;5094536;28;20227;-63
2021/01/09 04:32:11;;;;;;;32.08;17.90;;;;;;;;;;5094736;28;20195;-63
2021/01/09 04:34:37;;;;;;;32.67;18.38;;;;;;;;;;5094346;28;20195;-64
2021/01/09 04:37:04;;;;;;;32.10;17.88;;;;;;;;;;5094222;28;20187;-63
2021/01/09 04:39:31;;;;;;;30.00;17.00;;;;;;;;;;5094334;28;20187;-63
2021/01/09 04:41:57;;;;;;;34.78;20.15;;;;;;;;;;5094343;28;20661;-62
2021/01/09 04:44:25;;;;;;;31.98;18.23;;;;;;;;;;5094243;28;20646;-63
2021/01/09 04:46:55;;;;;;;31.77;18.52;;;;;;;;;;5093813;28;20767;-63
2021/01/09 04:49:23;;;;;;;34.80;18.83;;;;;;;;;;5094288;28;20591;-63
2021/01/09 04:51:53;;;;;;;47.28;20.83;;;;;;;;;;5094207;28;20196;-63
2021/01/09 04:54:23;;;;;;;33.53;18.48;;;;;;;;;;5094031;28;20203;-63
2021/01/09 04:56:51;;;;;;;36.00;19.38;;;;;;;;;;5093114;28;20199;-64
2021/01/09 04:59:18;;;;;;;34.72;21.48;;;;;;;;;;5094247;28;20222;-63
2021/01/09 05:01:46;;;;;;;35.20;18.65;;;;;;;;;;5093969;28;20190;-63
2021/01/09 05:04:13;;;;;;;42.10;22.73;;;;;;;;;;5094073;28;20542;-63
2021/01/09 05:06:40;;;;;;;53.00;31.70;;;;;;;;;;5093285;28;20195;-63
2021/01/09 05:09:09;;;;;;;67.43;38.97;;;;;;;;;;5093648;28;20272;-63
2021/01/09 05:11:38;;;;;;;46.85;27.15;;;;;;;;;;5093812;28;20656;-63
2021/01/09 05:14:06;;;;;;;40.40;22.85;;;;;;;;;;5093918;28;20206;-63
2021/01/09 05:16:35;;;;;;;38.10;21.25;;;;;;;;;;5093768;28;20194;-63
2021/01/09 05:19:05;;;;;;;42.33;22.63;;;;;;;;;;5093756;28;20210;-63
2021/01/09 05:21:33;;;;;;;32.28;18.67;;;;;;;;;;5093629;28;20188;-63
2021/01/09 05:24:02;;;;;;;33.75;18.83;;;;;;;;;;5093821;28;20199;-63
2021/01/09 05:26:31;;;;;;;37.22;19.83;;;;;;;;;;5093469;28;20650;-63
2021/01/09 05:29:01;;;;;;;32.30;19.98;;;;;;;;;;5093447;28;20210;-63
2021/01/09 05:31:30;;;;;;;38.72;21.02;;;;;;;;;;5093373;28;20187;-63
2021/01/09 05:33:56;;;;;;;35.03;17.80;;;;;;;;;;5092959;28;20195;-63
2021/01/09 05:36:27;;;;;;;33.90;20.10;;;;;;;;;;5093451;28;20195;-63
2021/01/09 05:38:53;;;;;;;33.75;19.00;;;;;;;;;;5093680;28;20206;-63
2021/01/09 05:41:21;;;;;;;29.45;17.88;;;;;;;;;;5093272;28;20195;-63
2021/01/09 05:44:06;;;;;;;35.72;20.05;;;;;;;;;;5093136;28;20249;-63
2021/01/09 05:46:33;;;;;;;31.08;17.75;;;;;;;;;;5093325;28;20638;-63
2021/01/09 05:49:01;;;;;;;28.58;16.42;;;;;;;;;;5093211;28;20219;-63
2021/01/09 05:51:28;;;;;;;30.60;16.75;;;;;;;;;;5092880;28;20223;-63
2021/01/09 05:53:55;;;;;;;21.42;14.40;;;;;;;;;;5093204;28;20240;-63
2021/01/09 05:56:22;;;;;;;25.23;14.93;;;;;;;;;;5093254;28;20290;-63
2021/01/09 05:58:49;;;;;;;23.45;13.85;;;;;;;;;;5093456;28;20196;-63
2021/01/09 06:01:19;;;;;;;33.35;17.55;;;;;;;;;;5091870;28;20245;-63
2021/01/09 06:03:47;;;;;;;32.10;19.25;;;;;;;;;;5093254;28;20615;-64
2021/01/09 06:06:21;;;;;;;34.90;18.88;;;;;;;;;;5093484;28;20203;-63
2021/01/09 06:08:49;;;;;;;27.30;16.02;;;;;;;;;;5093027;28;20590;-63
2021/01/09 06:11:24;;;;;;;33.88;16.40;;;;;;;;;;5093435;28;20191;-63
2021/01/09 06:13:52;;;;;;;26.85;14.73;;;;;;;;;;5093319;28;20236;-63
2021/01/09 06:16:20;;;;;;;25.25;15.45;;;;;;;;;;5093104;28;20204;-63
2021/01/09 06:18:46;;;;;;;24.30;13.13;;;;;;;;;;5096831;28;20195;-63
2021/01/09 06:21:14;;;;;;;27.55;14.52;;;;;;;;;;5096890;28;20264;-63
2021/01/09 06:23:40;;;;;;;27.38;15.98;;;;;;;;;;5097106;28;20554;-63
2021/01/09 06:26:11;;;;;;;29.33;16.48;;;;;;;;;;5097063;28;20195;-63
2021/01/09 06:28:41;;;;;;;26.27;16.27;;;;;;;;;;5096897;28;20215;-63
2021/01/09 06:31:08;;;;;;;27.58;15.85;;;;;;;;;;5096020;28;20211;-63
2021/01/09 06:33:38;;;;;;;24.88;14.80;;;;;;;;;;5096818;28;20237;-63
2021/01/09 06:36:13;;;;;;;27.65;14.82;;;;;;;;;;5097151;28;20252;-64
2021/01/09 06:38:41;;;;;;;27.13;16.02;;;;;;;;;;5096866;28;20240;-64
2021/01/09 06:41:11;;;;;;;26.67;15.02;;;;;;;;;;5096446;28;20650;-64
2021/01/09 06:43:38;;;;;;;23.52;12.60;;;;;;;;;;5096419;28;20195;-63
2021/01/09 06:46:11;;;;;;;20.50;12.50;;;;;;;;;;5096501;28;20712;-63
2021/01/09 06:48:44;;;;;;;23.88;15.00;;;;;;;;;;5056877;28;20228;-63
2021/01/09 06:51:31;;;;;;;22.15;14.45;;;;;;;;;;5056635;28;20197;-63
2021/01/09 06:54:16;;;;;;;28.05;17.48;;;;;;;;;;5056216;28;20258;-63
2021/01/09 06:56:44;;;;;;;29.25;16.92;;;;;;;;;;5056305;28;20193;-63
2021/01/09 06:59:31;;;;;;;27.98;17.45;;;;;;;;;;5055952;28;20560;-63
2021/01/09 07:02:16;;;;;;;36.00;20.85;;;;;;;;;;5056096;28;20196;-63
2021/01/09 07:04:50;;;;;;;29.40;17.45;;;;;;;;;;5055876;28;20200;-63
2021/01/09 07:07:27;;;;;;;29.98;18.88;;;;;;;;;;5055816;28;20181;-63
2021/01/09 07:10:00;;;;;;;30.77;15.77;;;;;;;;;;5056293;28;20224;-63
2021/01/09 07:12:30;;;;;;;33.33;17.05;;;;;;;;;;5055788;28;20565;-64
2021/01/09 07:15:04;;;;;;;29.73;15.95;;;;;;;;;;5055571;28;20199;-63
2021/01/09 07:17:33;;;;;;;24.70;12.90;;;;;;;;;;5055901;28;20193;-65
2021/01/09 07:20:01;;;;;;;24.13;14.57;;;;;;;;;;5055574;28;20192;-63
2021/01/09 07:22:29;;;;;;;25.55;15.05;;;;;;;;;;5054360;28;20201;-63
2021/01/09 07:25:00;;;;;;;27.77;16.58;;;;;;;;;;5054963;28;20678;-63
2021/01/09 07:27:34;;;;;;;25.35;14.80;;;;;;;;;;5054370;28;20211;-63
2021/01/09 07:30:08;;;;;;;25.13;15.82;;;;;;;;;;5054316;28;20207;-63
2021/01/09 07:32:40;;;;;;;24.13;15.70;;;;;;;;;;5055067;28;20215;-63
2021/01/09 07:35:08;;;;;;;30.25;19.55;;;;;;;;;;5066037;28;20632;-64
2021/01/09 07:37:38;;;;;;;29.77;19.17;;;;;;;;;;5069838;28;20193;-64
2021/01/09 07:40:11;;;;;;;28.15;18.40;;;;;;;;;;5065744;28;20212;-63
2021/01/09 07:42:38;;;;;;;29.58;20.77;;;;;;;;;;5074603;28;20531;-64
2021/01/09 07:45:07;;;;;;;30.92;18.40;;;;;;;;;;5074560;28;20195;-63
2021/01/09 07:47:37;;;;;;;26.70;17.92;;;;;;;;;;5097067;28;20227;-64
2021/01/09 07:50:06;;;;;;;26.83;17.25;;;;;;;;;;5115074;28;20218;-63
2021/01/09 07:52:34;;;;;;;25.73;17.15;;;;;;;;;;5115115;28;20752;-63
2021/01/09 07:55:02;;;;;;;32.53;19.85;;;;;;;;;;5114514;28;20246;-64
2021/01/09 07:57:30;;;;;;;31.50;19.05;;;;;;;;;;5095300;28;20194;-63
2021/01/09 07:59:57;;;;;;;32.80;20.73;;;;;;;;;;5094423;28;20214;-64
2021/01/09 08:02:24;;;;;;;33.72;20.88;;;;;;;;;;5094278;28;20184;-64
2021/01/09 08:04:50;;;;;;;29.08;18.75;;;;;;;;;;5092907;28;20198;-64
2021/01/09 08:07:17;;;;;;;34.90;20.45;;;;;;;;;;5094280;28;20214;-63
2021/01/09 08:09:44;;;;;;;36.08;22.48;;;;;;;;;;5094324;28;20293;-63
2021/01/09 08:12:12;;;;;;;35.25;21.00;;;;;;;;;;5094073;28;20195;-63
2021/01/09 08:14:38;;;;;;;27.50;15.48;;;;;;;;;;5094408;28;20188;-64
2021/01/09 08:17:11;;;;;;;26.90;17.52;;;;;;;;;;5094062;28;20195;-63
2021/01/09 08:19:38;;;;;;;28.58;16.33;;;;;;;;;;5094032;28;20184;-63
2021/01/09 08:22:05;;;;;;;27.52;14.93;;;;;;;;;;5095031;28;20281;-63
2021/01/09 08:24:32;;;;;;;25.88;15.80;;;;;;;;;;5094688;28;20215;-64
2021/01/09 08:27:00;;;;;;;25.05;15.00;;;;;;;;;;5093188;28;20199;-63
2021/01/09 08:29:29;;;;;;;31.70;16.40;;;;;;;;;;5094437;28;20215;-63
2021/01/09 08:31:56;;;;;;;25.35;14.63;;;;;;;;;;5094615;28;20211;-63
2021/01/09 08:34:23;;;;;;;28.25;15.77;;;;;;;;;;5094529;28;20200;-63
2021/01/09 08:37:00;;;;;;;29.45;16.33;;;;;;;;;;5094398;28;20201;-63
2021/01/09 08:39:29;;;;;;;27.80;14.50;;;;;;;;;;5094303;28;20532;-63
2021/01/09 08:41:57;;;;;;;23.27;14.48;;;;;;;;;;5094400;28;20195;-63
2021/01/09 08:44:23;;;;;;;24.15;14.90;;;;;;;;;;5092941;28;20205;-63
2021/01/09 08:46:51;;;;;;;26.00;14.55;;;;;;;;;;5093943;28;20268;-64
2021/01/09 08:49:25;;;;;;;27.85;18.60;;;;;;;;;;5092954;28;20223;-64
2021/01/09 08:52:03;;;;;;;25.33;14.50;;;;;;;;;;5094425;28;20268;-63
2021/01/09 08:54:35;;;;;;;24.25;15.95;;;;;;;;;;5094104;28;20191;-63
2021/01/09 08:57:04;;;;;;;28.23;17.80;;;;;;;;;;5092946;28;20642;-63
2021/01/09 08:59:31;;;;;;;24.35;15.30;;;;;;;;;;5094302;28;20207;-62
2021/01/09 09:02:01;;;;;;;27.58;14.50;;;;;;;;;;5092457;28;20203;-62
2021/01/09 09:04:32;;;;;;;28.30;16.48;;;;;;;;;;5094369;28;20199;-63
2021/01/09 09:07:00;;;;;;;49.28;22.88;;;;;;;;;;5093990;28;20195;-63
2021/01/09 09:09:29;;;;;;;26.10;15.85;;;;;;;;;;5093794;28;20666;-64
2021/01/09 09:11:57;;;;;;;25.90;15.18;;;;;;;;;;5093375;28;20207;-62
2021/01/09 09:14:25;;;;;;;26.42;15.90;;;;;;;;;;5093936;28;20607;-64
2021/01/09 09:16:57;;;;;;;29.17;16.27;;;;;;;;;;5093979;28;20564;-64
2021/01/09 09:19:24;;;;;;;26.63;16.25;;;;;;;;;;5093646;28;20226;-64
2021/01/09 09:21:58;;;;;;;23.48;14.77;;;;;;;;;;5093620;28;20199;-64
2021/01/09 09:24:38;;;;;;;23.42;14.35;;;;;;;;;;5093890;28;20203;-63
2021/01/09 09:27:18;;;;;;;28.45;16.25;;;;;;;;;;5093521;28;20199;-64
2021/01/09 09:29:46;;;;;;;23.35;14.18;;;;;;;;;;5093889;28;20199;-64
2021/01/09 09:32:26;;;;;;;22.30;14.68;;;;;;;;;;5093396;28;20196;-63
2021/01/09 09:34:56;;;;;;;24.80;14.93;;;;;;;;;;5091466;28;20650;-64
2021/01/09 09:37:34;;;;;;;24.95;16.25;;;;;;;;;;5093411;28;20623;-63
2021/01/09 09:40:01;;;;;;;26.80;16.05;;;;;;;;;;5093579;28;20543;-63
2021/01/09 09:42:37;;;;;;;30.55;19.85;;;;;;;;;;5092474;28;20191;-64
2021/01/09 09:45:11;;;;;;;30.35;17.08;;;;;;;;;;5093621;28;20212;-65
2021/01/09 09:47:46;;;;;;;26.67;15.88;;;;;;;;;;5093431;28;20234;-63
2021/01/09 09:50:19;;;;;;;25.52;16.20;;;;;;;;;;5093415;28;20215;-64
2021/01/09 09:52:56;;;;;;;28.13;15.10;;;;;;;;;;5095684;28;20191;-64
2021/01/09 09:55:26;;;;;;;20.55;13.43;;;;;;;;;;5097579;28;20262;-63
2021/01/09 09:58:10;;;;;;;25.38;15.20;;;;;;;;;;5097498;28;20550;-64
2021/01/09 10:00:55;;;;;;;29.42;15.93;;;;;;;;;;5097361;28;20192;-64
2021/01/09 10:03:34;;;;;;;26.23;15.23;;;;;;;;;;5097491;28;20669;-64
2021/01/09 10:06:02;;;;;;;24.27;14.77;;;;;;;;;;5097161;28;20241;-64
2021/01/09 10:08:30;;;;;;;24.92;16.15;;;;;;;;;;5097325;28;20654;-64
2021/01/09 10:10:58;;;;;;;22.88;13.55;;;;;;;;;;5097069;28;20215;-63
2021/01/09 10:13:25;;;;;;;24.63;15.68;;;;;;;;;;5096994;28;20535;-64
2021/01/09 10:15:52;;;;;;;23.20;13.55;;;;;;;;;;5097682;28;20276;-64
2021/01/09 10:18:18;;;;;;;26.55;15.93;;;;;;;;;;5097343;28;20286;-64
2021/01/09 10:20:45;;;;;;;25.40;15.63;;;;;;;;;;5097081;28;20639;-64
2021/01/09 10:23:13;;;;;;;21.58;12.88;;;;;;;;;;5096931;28;20191;-64
2021/01/09 10:25:41;;;;;;;29.77;16.48;;;;;;;;;;5096993;28;20195;-64
2021/01/09 10:28:09;;;;;;;31.75;17.73;;;;;;;;;;5096736;28;20642;-64
2021/01/09 10:30:36;;;;;;;26.45;15.55;;;;;;;;;;5096451;28;20589;-64
2021/01/09 10:33:03;;;;;;;21.13;13.95;;;;;;;;;;5096836;28;20584;-64
2021/01/09 10:35:30;;;;;;;25.58;15.15;;;;;;;;;;5098333;28;20199;-64
2021/01/09 10:37:56;;;;;;;23.88;15.25;;;;;;;;;;5097087;28;20192;-64
2021/01/09 10:40:23;;;;;;;22.75;14.00;;;;;;;;;;5096864;28;20646;-63
2021/01/09 10:42:52;;;;;;;32.50;13.68;;;;;;;;;;5096615;28;20206;-64
2021/01/09 10:45:19;;;;;;;20.63;13.55;;;;;;;;;;5096931;28;20569;-64
2021/01/09 10:47:49;;;;;;;25.20;14.90;;;;;;;;;;5096965;28;20710;-63
2021/01/09 10:50:16;;;;;;;34.72;16.00;;;;;;;;;;5096250;28;20223;-63
2021/01/09 10:52:43;;;;;;;23.27;14.15;;;;;;;;;;5096378;28;20225;-64
2021/01/09 10:55:12;;;;;;;24.80;15.20;;;;;;;;;;5096456;28;20219;-64
2021/01/09 10:57:39;;;;;;;21.58;13.30;;;;;;;;;;5096767;28;20276;-64
2021/01/09 11:00:09;;;;;;;22.67;14.75;;;;;;;;;;5096307;28;20203;-64
2021/01/09 11:02:36;;;;;;;19.75;14.18;;;;;;;;;;5096196;28;20210;-64
2021/01/09 11:05:03;;;;;;;21.92;13.68;;;;;;;;;;5095010;28;20199;-64
2021/01/09 11:07:32;;;;;;;22.42;12.82;;;;;;;;;;5096041;28;20195;-64
2021/01/09 11:09:59;;;;;;;17.38;11.98;;;;;;;;;;5096477;28;20245;-64
2021/01/09 11:12:28;;;;;;;19.23;13.48;;;;;;;;;;5096295;28;20638;-64
2021/01/09 11:14:56;;;;;;;25.00;18.55;;;;;;;;;;5095911;28;20226;-65
2021/01/09 11:17:22;;;;;;;18.95;12.00;;;;;;;;;;5095806;28;20710;-63
2021/01/09 11:19:49;;;;;;;18.05;11.13;;;;;;;;;;5096110;28;20204;-63
2021/01/09 11:22:16;;;;;;;15.20;11.55;;;;;;;;;;5095890;28;20245;-63
2021/01/09 11:24:42;;;;;;;21.20;12.88;;;;;;;;;;5096038;28;20187;-63
2021/01/09 11:27:11;;;;;;;16.30;11.75;;;;;;;;;;5096081;28;20226;-63
2021/01/09 11:29:38;;;;;;;19.92;11.55;;;;;;;;;;5095604;28;20750;-63
2021/01/09 11:32:06;;;;;;;15.73;11.35;;;;;;;;;;5096060;28;20187;-64
2021/01/09 11:34:32;;;;;;;20.33;12.70;;;;;;;;;;5095919;28;20199;-63
2021/01/09 11:37:00;;;;;;;18.17;11.48;;;;;;;;;;5095724;28;20191;-64
2021/01/09 11:39:28;;;;;;;17.58;12.80;;;;;;;;;;5096055;28;20195;-64
2021/01/09 11:41:58;;;;;;;20.35;14.02;;;;;;;;;;5095443;28;20191;-63
2021/01/09 11:44:27;;;;;;;15.85;10.82;;;;;;;;;;5095637;28;20292;-64
2021/01/09 11:46:56;;;;;;;19.08;12.63;;;;;;;;;;5095466;28;20234;-63
2021/01/09 11:49:25;;;;;;;18.10;11.70;;;;;;;;;;5095367;28;20226;-63
2021/01/09 11:51:53;;;;;;;19.30;12.48;;;;;;;;;;5093579;28;20202;-63
2021/01/09 11:54:21;;;;;;;18.15;11.77;;;;;;;;;;5094103;28;20206;-63
2021/01/09 11:56:47;;;;;;;16.13;12.02;;;;;;;;;;5095109;28;20191;-63
2021/01/09 11:59:14;;;;;;;19.08;13.40;;;;;;;;;;5095477;28;20191;-63
2021/01/09 12:01:40;;;;;;;25.92;13.52;;;;;;;;;;5095212;28;20191;-63
2021/01/09 12:04:09;;;;;;;20.13;12.27;;;;;;;;;;5094866;28;20191;-63
2021/01/09 12:06:39;;;;;;;17.85;12.00;;;;;;;;;;5094968;28;20192;-63
2021/01/09 12:09:06;;;;;;;14.38;11.80;;;;;;;;;;5095425;28;20191;-63
2021/01/09 12:11:32;;;;;;;23.42;12.65;;;;;;;;;;5095303;28;20226;-63
2021/01/09 12:13:59;;;;;;;19.17;12.20;;;;;;;;;;5095159;28;20222;-63
2021/01/09 12:16:30;;;;;;;15.20;11.25;;;;;;;;;;5094658;28;20260;-63
2021/01/09 12:18:57;;;;;;;17.50;11.88;;;;;;;;;;5094870;28;20206;-63
2021/01/09 12:21:28;;;;;;;19.42;14.10;;;;;;;;;;5094835;28;20199;-63
2021/01/09 12:23:56;;;;;;;21.23;13.23;;;;;;;;;;5095077;28;20572;-63
2021/01/09 12:26:23;;;;;;;17.15;11.95;;;;;;;;;;5094729;28;20211;-63
2021/01/09 12:28:50;;;;;;;17.85;12.70;;;;;;;;;;5095135;28;20646;-63
2021/01/09 12:31:18;;;;;;;21.77;14.65;;;;;;;;;;5094480;28;20584;-63
2021/01/09 12:33:45;;;;;;;20.05;13.90;;;;;;;;;;5094537;28;20180;-63
2021/01/09 12:36:17;;;;;;;26.20;16.50;;;;;;;;;;5094726;28;20187;-63
2021/01/09 12:38:43;;;;;;;25.38;16.52;;;;;;;;;;5094079;28;20203;-64
2021/01/09 12:41:12;;;;;;;24.92;15.70;;;;;;;;;;5094256;28;20619;-63
2021/01/09 12:43:39;;;;;;;23.85;14.48;;;;;;;;;;5094328;28;20583;-63
2021/01/09 12:46:07;;;;;;;22.77;14.07;;;;;;;;;;5094469;28;20281;-63
2021/01/09 12:48:38;;;;;;;24.83;16.30;;;;;;;;;;5094023;28;20235;-63
2021/01/09 12:51:05;;;;;;;24.35;15.65;;;;;;;;;;5094433;28;20267;-63
2021/01/09 12:53:31;;;;;;;27.58;16.38;;;;;;;;;;5094519;28;20192;-62
2021/01/09 12:56:09;;;;;;;26.40;16.80;;;;;;;;;;5094117;28;20237;-63
2021/01/09 12:58:36;;;;;;;29.63;18.20;;;;;;;;;;5094402;28;20252;-62
2021/01/09 13:01:02;;;;;;;25.55;15.45;;;;;;;;;;5094112;28;20206;-63
2021/01/09 13:03:29;;;;;;;27.17;17.23;;;;;;;;;;5094030;28;20203;-63
2021/01/09 13:05:59;;;;;;;50.50;17.40;;;;;;;;;;5094685;28;20210;-63
2021/01/09 13:08:25;;;;;;;26.50;15.93;;;;;;;;;;5094741;28;20207;-63
2021/01/09 13:10:53;;;;;;;29.25;16.38;;;;;;;;;;5094017;28;20579;-63
2021/01/09 13:13:20;;;;;;;32.45;17.13;;;;;;;;;;5094518;28;20639;-63
2021/01/09 13:15:51;;;;;;;27.92;16.77;;;;;;;;;;5094082;28;20187;-64
2021/01/09 13:18:18;;;;;;;28.38;17.00;;;;;;;;;;5093639;28;21155;-64
2021/01/09 13:20:46;;;;;;;22.98;15.82;;;;;;;;;;5093739;28;20203;-64
2021/01/09 13:23:12;;;;;;;24.85;16.10;;;;;;;;;;5093892;28;20191;-64
2021/01/09 13:25:41;;;;;;;26.65;17.00;;;;;;;;;;5093665;28;20211;-64
2021/01/09 13:28:08;;;;;;;28.20;17.45;;;;;;;;;;5093156;28;20187;-64
2021/01/09 13:30:34;;;;;;;27.67;16.73;;;;;;;;;;5093879;28;20217;-64
2021/01/09 13:33:01;;;;;;;28.85;17.95;;;;;;;;;;5093683;28;20244;-65
2021/01/09 13:35:28;;;;;;;34.03;18.60;;;;;;;;;;5094071;28;20647;-65
2021/01/09 13:37:55;;;;;;;31.90;17.55;;;;;;;;;;5093710;28;20192;-64
2021/01/09 13:40:24;;;;;;;21.70;15.75;;;;;;;;;;5094104;28;20192;-65
2021/01/09 13:42:53;;;;;;;26.77;16.02;;;;;;;;;;5093391;28;20659;-64
2021/01/09 13:45:20;;;;;;;27.10;16.23;;;;;;;;;;5093385;28;20240;-64
2021/01/09 13:47:48;;;;;;;26.75;16.30;;;;;;;;;;5093180;28;20280;-64
2021/01/09 13:50:15;;;;;;;29.80;18.45;;;;;;;;;;5093379;28;20226;-64
2021/01/09 13:52:42;;;;;;;23.45;16.10;;;;;;;;;;5093520;28;20191;-64
2021/01/09 13:55:11;;;;;;;26.88;16.23;;;;;;;;;;5093668;28;20187;-64
2021/01/09 13:57:49;;;;;;;24.45;14.85;;;;;;;;;;5093344;28;20194;-64
2021/01/09 14:00:18;;;;;;;28.15;16.15;;;;;;;;;;5094241;28;20203;-63
2021/01/09 14:02:46;;;;;;;23.52;15.13;;;;;;;;;;5093901;28;20648;-65
2021/01/09 14:05:14;;;;;;;22.80;15.55;;;;;;;;;;5093429;28;20203;-64
2021/01/09 14:07:41;;;;;;;24.30;16.80;;;;;;;;;;5092325;28;20210;-64
2021/01/09 14:10:08;;;;;;;27.80;17.17;;;;;;;;;;5093586;28;20211;-63
2021/01/09 14:12:37;;;;;;;22.75;15.02;;;;;;;;;;5093911;28;20286;-64
2021/01/09 14:15:07;;;;;;;30.80;18.38;;;;;;;;;;5092039;28;20213;-64
2021/01/09 14:17:35;;;;;;;25.58;17.55;;;;;;;;;;5093211;28;20210;-65
2021/01/09 14:20:03;;;;;;;26.85;17.85;;;;;;;;;;5093378;28;20191;-63
2021/01/09 14:22:33;;;;;;;27.92;18.00;;;;;;;;;;5093248;28;20685;-62
2021/01/09 14:25:01;;;;;;;27.02;16.77;;;;;;;;;;5093481;28;20194;-62